Time;durP1;ratioP1;P1;durP2;ratioP2;P2;SDS_P1;SDS_P2;PMS_P1;PMS_P2;Temp;Humidity;BMP_temperature;BMP_pressure;BME280_temperature;BME280_humidity;BME280_pressure;Samples;Min_cycle;Max_cycle;Signal;HPM_P1;HPM_P2
2021/06/16 00:01:53;;;;;;;9.57;1.60;;;20.90;99.90;;;;;;5056237;28;20249;-83
2021/06/16 00:04:19;;;;;;;10.00;2.00;;;20.90;99.90;;;;;;5069374;28;20619;-83
2021/06/16 00:06:45;;;;;;;4.40;2.13;;;20.90;99.90;;;;;;5070696;28;20174;-83
2021/06/16 00:09:10;;;;;;;9.60;2.25;;;21.00;99.90;;;;;;5070989;28;20163;-83
2021/06/16 00:11:36;;;;;;;6.50;2.22;;;20.90;99.90;;;;;;5034430;28;20168;-83
2021/06/16 00:14:04;;;;;;;6.93;2.00;;;20.90;99.90;;;;;;5036887;28;20172;-83
2021/06/16 00:16:30;;;;;;;6.07;2.22;;;20.90;99.90;;;;;;5036999;28;20172;-83
2021/06/16 00:18:55;;;;;;;4.60;2.45;;;20.80;99.90;;;;;;5053817;28;20195;-83
2021/06/16 00:21:21;;;;;;;7.70;2.83;;;20.70;99.90;;;;;;5055337;28;20511;-83
2021/06/16 00:23:48;;;;;;;7.95;3.30;;;20.70;99.90;;;;;;5054214;28;20242;-83
2021/06/16 00:26:15;;;;;;;11.93;2.88;;;20.70;99.90;;;;;;5038834;28;20164;-83
2021/06/16 00:28:42;;;;;;;14.25;3.30;;;20.70;99.90;;;;;;5017703;28;20514;-84
2021/06/16 00:31:08;;;;;;;7.43;2.35;;;20.70;99.90;;;;;;5033636;28;20192;-84
2021/06/16 00:33:33;;;;;;;7.03;3.38;;;20.70;99.90;;;;;;5035135;28;20218;-84
2021/06/16 00:35:59;;;;;;;6.78;2.50;;;20.70;99.90;;;;;;5045805;28;20562;-84
2021/06/16 00:38:26;;;;;;;9.15;3.03;;;20.60;99.90;;;;;;5054793;28;20195;-84
2021/06/16 00:40:51;;;;;;;8.80;2.92;;;20.60;99.90;;;;;;5036297;28;20233;-84
2021/06/16 00:43:17;;;;;;;9.20;2.85;;;20.50;99.90;;;;;;5053301;28;20171;-83
2021/06/16 00:45:43;;;;;;;4.07;2.20;;;20.40;99.90;;;;;;5051444;28;20254;-84
2021/06/16 00:48:09;;;;;;;4.90;2.47;;;20.40;99.90;;;;;;5033613;28;20258;-84
2021/06/16 00:50:39;;;;;;;6.47;2.47;;;20.40;99.90;;;;;;5034559;28;20167;-83
2021/06/16 00:53:06;;;;;;;3.97;2.10;;;20.50;99.90;;;;;;5033390;28;20164;-83
2021/06/16 00:55:37;;;;;;;7.63;2.40;;;20.40;99.90;;;;;;5034771;28;20164;-83
2021/06/16 00:58:03;;;;;;;7.93;2.55;;;20.50;99.90;;;;;;5033590;28;20196;-83
2021/06/16 01:00:36;;;;;;;7.40;2.63;;;20.50;99.90;;;;;;5033122;28;20172;-83
2021/06/16 01:03:11;;;;;;;8.52;1.90;;;20.50;99.90;;;;;;5034686;28;20159;-84
2021/06/16 01:05:41;;;;;;;4.80;2.10;;;20.40;99.90;;;;;;5033232;28;20638;-83
2021/06/16 01:08:07;;;;;;;4.05;2.03;;;20.40;99.90;;;;;;5035687;28;20192;-83
2021/06/16 01:10:37;;;;;;;5.95;2.28;;;20.30;99.90;;;;;;5026241;28;20183;-83
2021/06/16 01:13:29;;;;;;;6.40;2.80;;;20.30;99.90;;;;;;5042898;28;20243;-84
2021/06/16 01:16:07;;;;;;;6.43;2.25;;;20.30;99.90;;;;;;5033153;28;20606;-83
2021/06/16 01:18:45;;;;;;;5.22;2.25;;;20.40;99.90;;;;;;5035495;28;20191;-84
2021/06/16 01:21:12;;;;;;;5.07;1.92;;;20.30;99.90;;;;;;5034263;28;20156;-84
2021/06/16 01:23:49;;;;;;;6.00;2.05;;;20.30;99.90;;;;;;5035311;28;20215;-83
2021/06/16 01:26:21;;;;;;;4.68;2.13;;;20.20;99.90;;;;;;5034299;28;20254;-84
2021/06/16 01:28:49;;;;;;;5.90;2.17;;;20.20;99.90;;;;;;5035310;28;20176;-84
2021/06/16 01:31:18;;;;;;;6.85;1.92;;;20.20;99.90;;;;;;5034276;28;20186;-84
2021/06/16 01:33:45;;;;;;;10.43;2.17;;;20.10;99.90;;;;;;5033691;28;20736;-83
2021/06/16 01:36:12;;;;;;;8.70;2.30;;;20.20;99.90;;;;;;5032906;28;20246;-84
2021/06/16 01:38:39;;;;;;;6.72;2.42;;;20.10;99.90;;;;;;5033904;28;20257;-84
2021/06/16 01:41:05;;;;;;;6.07;2.30;;;20.00;99.90;;;;;;5040639;28;20167;-84
2021/06/16 01:43:31;;;;;;;4.10;2.45;;;20.00;99.90;;;;;;5034317;28;20172;-83
2021/06/16 01:46:04;;;;;;;7.63;1.77;;;20.00;99.90;;;;;;5035170;28;20175;-84
2021/06/16 01:48:31;;;;;;;4.18;1.95;;;19.90;99.90;;;;;;5033811;28;20165;-84
2021/06/16 01:50:59;;;;;;;6.03;2.88;;;20.00;99.90;;;;;;5034829;28;20512;-84
2021/06/16 01:53:25;;;;;;;9.63;2.17;;;20.10;99.90;;;;;;5033635;28;20228;-84
2021/06/16 01:55:52;;;;;;;3.47;2.10;;;20.00;99.90;;;;;;5049144;28;20608;-84
2021/06/16 01:58:19;;;;;;;4.55;1.75;;;20.00;99.90;;;;;;5032632;28;20703;-84
2021/06/16 02:00:46;;;;;;;4.55;2.38;;;19.90;99.90;;;;;;5033397;28;20179;-84
2021/06/16 02:03:12;;;;;;;2.60;1.60;;;19.90;99.90;;;;;;5032294;28;20160;-84
2021/06/16 02:05:38;;;;;;;7.65;1.85;;;19.90;99.90;;;;;;5038981;28;20167;-85
2021/06/16 02:08:13;;;;;;;5.47;1.92;;;19.90;99.90;;;;;;5051916;28;20232;-83
2021/06/16 02:10:46;;;;;;;7.30;2.10;;;19.80;99.90;;;;;;5042387;28;20552;-84
2021/06/16 02:13:13;;;;;;;5.10;2.10;;;19.80;99.90;;;;;;5012677;28;20169;-84
2021/06/16 02:15:45;;;;;;;6.65;1.98;;;19.90;99.90;;;;;;5013533;28;20322;-84
2021/06/16 02:18:10;;;;;;;5.53;1.92;;;19.80;99.90;;;;;;5028976;28;20200;-84
2021/06/16 02:20:39;;;;;;;8.25;2.15;;;19.90;99.90;;;;;;5013893;28;20191;-84
2021/06/16 02:23:05;;;;;;;8.90;2.28;;;19.90;99.90;;;;;;5030416;28;20557;-84
2021/06/16 02:25:31;;;;;;;11.68;2.42;;;20.00;99.90;;;;;;5033511;28;20601;-83
2021/06/16 02:27:56;;;;;;;5.78;2.05;;;20.10;99.90;;;;;;5033518;28;20195;-84
2021/06/16 02:30:22;;;;;;;9.48;2.28;;;20.20;99.90;;;;;;5031775;28;20261;-84
2021/06/16 02:32:48;;;;;;;5.60;1.80;;;20.20;99.90;;;;;;5033342;28;20182;-84
2021/06/16 02:35:15;;;;;;;5.25;2.30;;;20.20;99.90;;;;;;5032356;28;20171;-84
2021/06/16 02:37:49;;;;;;;4.32;1.85;;;20.10;99.90;;;;;;5033379;28;20629;-84
2021/06/16 02:40:17;;;;;;;7.45;2.28;;;20.20;99.90;;;;;;5042155;28;20177;-84
2021/06/16 02:42:45;;;;;;;5.97;2.22;;;20.20;99.90;;;;;;5050595;28;20179;-84
2021/06/16 02:45:13;;;;;;;10.05;2.45;;;20.30;99.90;;;;;;5031956;28;20176;-85
2021/06/16 02:47:42;;;;;;;5.35;2.30;;;20.20;99.90;;;;;;5033205;28;20639;-84
2021/06/16 02:50:11;;;;;;;13.35;2.15;;;20.20;99.90;;;;;;5033308;28;20200;-84
2021/06/16 02:52:41;;;;;;;7.53;2.25;;;19.90;99.90;;;;;;5033295;28;20165;-84
2021/06/16 02:55:09;;;;;;;10.20;2.28;;;19.70;99.90;;;;;;5034763;28;20179;-84
2021/06/16 02:57:37;;;;;;;6.25;2.05;;;19.50;99.90;;;;;;5033330;28;20188;-84
2021/06/16 03:00:06;;;;;;;9.07;2.45;;;19.50;99.90;;;;;;5031859;28;20267;-84
2021/06/16 03:02:33;;;;;;;5.65;1.92;;;19.50;99.90;;;;;;5047840;28;20178;-84
2021/06/16 03:05:00;;;;;;;13.20;2.80;;;19.50;99.90;;;;;;5050277;28;20274;-83
2021/06/16 03:07:27;;;;;;;15.18;3.00;;;19.50;99.90;;;;;;5053141;28;20215;-84
2021/06/16 03:09:55;;;;;;;4.78;2.15;;;19.50;99.90;;;;;;5053082;28;20162;-84
2021/06/16 03:12:22;;;;;;;11.98;2.72;;;19.40;99.90;;;;;;5050604;28;20615;-84
2021/06/16 03:14:50;;;;;;;11.25;2.60;;;19.40;99.90;;;;;;5051288;28;20301;-84
2021/06/16 03:17:20;;;;;;;9.27;2.28;;;19.40;99.90;;;;;;5052919;28;20175;-84
2021/06/16 03:19:50;;;;;;;5.88;1.75;;;19.40;99.90;;;;;;5068709;28;20653;-84
2021/06/16 03:22:18;;;;;;;9.85;2.05;;;19.40;99.90;;;;;;5055268;28;20191;-84
2021/06/16 03:24:45;;;;;;;10.07;1.90;;;19.50;99.90;;;;;;5056327;28;20156;-84
2021/06/16 03:27:11;;;;;;;6.18;1.98;;;19.40;99.90;;;;;;5053552;28;20171;-84
2021/06/16 03:29:38;;;;;;;7.80;2.20;;;19.40;99.90;;;;;;5052255;28;20625;-84
2021/06/16 03:32:08;;;;;;;4.85;2.00;;;19.40;99.90;;;;;;5052595;28;20238;-83
2021/06/16 03:34:37;;;;;;;6.82;2.00;;;19.40;99.90;;;;;;5056640;28;20181;-83
2021/06/16 03:37:07;;;;;;;8.80;2.95;;;19.30;99.90;;;;;;5053418;28;20199;-84
2021/06/16 03:39:33;;;;;;;4.20;2.33;;;19.40;99.90;;;;;;5045294;28;20206;-84
2021/06/16 03:41:59;;;;;;;6.07;2.10;;;19.40;99.90;;;;;;5034983;28;20168;-83
2021/06/16 03:44:26;;;;;;;5.45;2.30;;;19.40;99.90;;;;;;5034933;28;20168;-83
2021/06/16 03:46:53;;;;;;;7.13;2.10;;;19.40;99.90;;;;;;5037339;28;20171;-84
2021/06/16 03:49:20;;;;;;;12.15;2.45;;;19.40;99.90;;;;;;5036166;28;20172;-83
2021/06/16 03:51:47;;;;;;;5.97;2.40;;;19.50;99.90;;;;;;5036056;28;20170;-83
2021/06/16 03:54:15;;;;;;;8.65;2.20;;;19.60;99.90;;;;;;5035987;28;20172;-82
2021/06/16 03:56:42;;;;;;;8.00;2.38;;;19.60;99.90;;;;;;5035647;28;20222;-83
2021/06/16 03:59:10;;;;;;;7.32;2.40;;;19.60;99.90;;;;;;5048200;28;20222;-83
2021/06/16 04:01:40;;;;;;;7.03;1.98;;;19.70;99.90;;;;;;5055408;28;20193;-83
2021/06/16 04:04:10;;;;;;;15.27;2.80;;;19.70;99.90;;;;;;5055765;28;20160;-82
2021/06/16 04:06:39;;;;;;;7.85;1.85;;;19.80;99.90;;;;;;5055193;28;20616;-83
2021/06/16 04:09:04;;;;;;;5.80;2.25;;;20.00;99.90;;;;;;5051115;28;20171;-82
2021/06/16 04:11:32;;;;;;;9.15;2.33;;;20.00;99.90;;;;;;5055472;28;20171;-82
2021/06/16 04:13:58;;;;;;;7.20;2.83;;;19.90;99.90;;;;;;5070691;28;20591;-83
2021/06/16 04:16:27;;;;;;;5.32;2.17;;;19.90;99.90;;;;;;5055178;28;20197;-83
2021/06/16 04:18:53;;;;;;;6.32;2.50;;;20.00;99.90;;;;;;5052053;28;20195;-82
2021/06/16 04:21:20;;;;;;;7.78;2.45;;;20.10;99.90;;;;;;5053654;28;20517;-82
2021/06/16 04:23:47;;;;;;;9.30;2.83;;;20.20;99.90;;;;;;5055299;28;20237;-83
2021/06/16 04:26:14;;;;;;;5.53;2.08;;;20.20;99.90;;;;;;5062069;28;20175;-83
2021/06/16 04:28:40;;;;;;;6.25;2.15;;;20.20;99.90;;;;;;5017647;28;20628;-82
2021/06/16 04:31:05;;;;;;;6.97;2.38;;;20.20;99.90;;;;;;5029963;28;20211;-82
2021/06/16 04:33:32;;;;;;;7.90;2.25;;;20.30;99.90;;;;;;5055158;28;20172;-81
2021/06/16 04:35:58;;;;;;;8.65;2.00;;;20.50;99.90;;;;;;5054984;28;20516;-82
2021/06/16 04:38:24;;;;;;;19.10;2.75;;;21.00;99.90;;;;;;5053761;28;20285;-82
2021/06/16 04:40:49;;;;;;;9.68;2.38;;;21.70;99.90;;;;;;5036631;28;20636;-82
2021/06/16 04:43:15;;;;;;;7.03;2.13;;;22.30;99.90;;;;;;5035450;28;20168;-82
2021/06/16 04:45:41;;;;;;;9.73;2.55;;;22.80;99.90;;;;;;5033883;28;20631;-82
2021/06/16 04:48:07;;;;;;;12.85;2.15;;;23.50;99.90;;;;;;5034814;28;20576;-82
2021/06/16 04:50:32;;;;;;;12.05;2.15;;;24.30;99.90;;;;;;5050215;28;20164;-82
2021/06/16 04:52:58;;;;;;;7.28;1.77;;;24.60;99.90;;;;;;5034529;28;20274;-81
2021/06/16 04:55:24;;;;;;;5.78;2.33;;;25.00;99.90;;;;;;5046833;28;20513;-83
2021/06/16 04:57:49;;;;;;;7.20;2.80;;;25.60;99.90;;;;;;5054639;28;20226;-83
2021/06/16 05:00:17;;;;;;;4.72;1.70;;;26.10;99.90;;;;;;5054623;28;20209;-83
2021/06/16 05:02:42;;;;;;;7.25;2.40;;;26.80;99.90;;;;;;5051432;28;20612;-83
2021/06/16 05:05:09;;;;;;;7.85;2.40;;;27.50;99.90;;;;;;5069592;28;20183;-82
2021/06/16 05:07:35;;;;;;;6.38;2.35;;;27.90;99.90;;;;;;5054548;28;20221;-83
2021/06/16 05:10:00;;;;;;;15.35;2.45;;;28.10;99.90;;;;;;5043999;28;20605;-83
2021/06/16 05:12:26;;;;;;;5.63;1.98;;;28.80;99.90;;;;;;5034299;28;20163;-83
2021/06/16 05:14:52;;;;;;;9.02;2.45;;;29.70;99.90;;;;;;5049773;28;20156;-83
2021/06/16 05:17:18;;;;;;;4.28;2.15;;;30.50;99.60;;;;;;5034264;28;20163;-83
2021/06/16 05:19:46;;;;;;;11.13;2.25;;;31.00;97.80;;;;;;5050215;28;20569;-83
2021/06/16 05:22:14;;;;;;;4.22;1.60;;;31.10;96.60;;;;;;5033132;28;20172;-83
2021/06/16 05:24:41;;;;;;;6.50;2.97;;;30.40;95.80;;;;;;5050587;28;20182;-83
2021/06/16 05:27:07;;;;;;;9.20;1.98;;;29.70;96.70;;;;;;5034172;28;20168;-83
2021/06/16 05:29:33;;;;;;;13.68;2.22;;;29.50;96.40;;;;;;5034198;28;20179;-83
2021/06/16 05:32:00;;;;;;;6.03;1.58;;;30.20;97.10;;;;;;5034278;28;20179;-83
2021/06/16 05:34:26;;;;;;;4.00;1.80;;;29.80;96.10;;;;;;5035245;28;20647;-84
2021/06/16 05:36:55;;;;;;;16.30;2.35;;;29.40;95.90;;;;;;5034076;28;20159;-83
2021/06/16 05:39:20;;;;;;;10.32;2.47;;;29.20;96.70;;;;;;5024233;28;20202;-83
2021/06/16 05:41:46;;;;;;;5.43;1.90;;;29.30;96.00;;;;;;5068462;28;20646;-83
2021/06/16 05:44:11;;;;;;;9.75;2.92;;;29.90;95.40;;;;;;5051178;28;20167;-84
2021/06/16 05:46:37;;;;;;;9.23;2.50;;;29.80;95.90;;;;;;5069107;28;20174;-84
2021/06/16 05:49:03;;;;;;;4.05;2.00;;;30.50;95.90;;;;;;5053813;28;20159;-84
2021/06/16 05:51:28;;;;;;;8.48;2.33;;;30.70;93.80;;;;;;5064835;28;20179;-84
2021/06/16 05:53:54;;;;;;;7.07;1.92;;;30.90;94.60;;;;;;5016041;28;20616;-84
2021/06/16 05:56:20;;;;;;;7.60;1.98;;;32.20;93.60;;;;;;5033664;28;20179;-84
2021/06/16 05:58:45;;;;;;;5.53;2.35;;;32.90;93.20;;;;;;5033205;28;20210;-84
2021/06/16 06:01:11;;;;;;;15.70;2.85;;;34.10;92.10;;;;;;5033708;28;20553;-84
2021/06/16 06:03:37;;;;;;;6.78;2.05;;;35.10;91.40;;;;;;5033971;28;20178;-84
2021/06/16 06:06:03;;;;;;;8.82;2.20;;;35.70;87.00;;;;;;5034576;28;20175;-84
2021/06/16 06:08:29;;;;;;;11.18;2.15;;;36.30;91.00;;;;;;5033342;28;20171;-84
2021/06/16 06:10:57;;;;;;;11.68;2.40;;;37.30;86.20;;;;;;5052432;28;20172;-84
2021/06/16 06:13:23;;;;;;;8.95;2.55;;;37.60;81.30;;;;;;5053607;28;20216;-84
2021/06/16 06:15:48;;;;;;;9.07;2.90;;;37.80;80.30;;;;;;5052735;28;20167;-85
2021/06/16 06:18:14;;;;;;;11.45;2.65;;;38.10;79.10;;;;;;5052433;28;20195;-84
2021/06/16 06:20:39;;;;;;;9.00;2.22;;;38.50;79.80;;;;;;5059584;28;20206;-85
2021/06/16 06:23:05;;;;;;;5.68;2.05;;;39.10;77.90;;;;;;5033367;28;20174;-84
2021/06/16 06:25:31;;;;;;;11.98;2.58;;;39.40;76.60;;;;;;5033473;28;20174;-84
2021/06/16 06:27:56;;;;;;;12.48;2.60;;;39.70;73.10;;;;;;5034365;28;20175;-83
2021/06/16 06:30:22;;;;;;;12.55;2.35;;;40.00;73.60;;;;;;5033117;28;20619;-83
2021/06/16 06:32:48;;;;;;;8.98;2.42;;;40.20;71.80;;;;;;5033402;28;20544;-83
2021/06/16 06:35:17;;;;;;;6.18;2.60;;;40.60;71.50;;;;;;5033383;28;20168;-83
2021/06/16 06:37:42;;;;;;;7.10;2.90;;;40.90;70.00;;;;;;5040319;28;20198;-84
2021/06/16 06:40:08;;;;;;;12.18;2.55;;;41.50;69.50;;;;;;5052823;28;20179;-84
2021/06/16 06:42:34;;;;;;;8.15;2.30;;;41.90;69.20;;;;;;5052917;28;20151;-83
2021/06/16 06:45:02;;;;;;;8.70;2.38;;;42.00;66.30;;;;;;5051933;28;20166;-83
2021/06/16 06:47:29;;;;;;;8.57;2.35;;;42.00;65.30;;;;;;5051652;28;20163;-84
2021/06/16 06:49:54;;;;;;;8.57;2.58;;;41.90;65.90;;;;;;5051433;28;20178;-84
2021/06/16 06:52:20;;;;;;;10.93;2.45;;;42.40;65.10;;;;;;5053271;28;20167;-84
2021/06/16 06:54:49;;;;;;;12.77;3.63;;;42.60;65.50;;;;;;5070123;28;20171;-84
2021/06/16 06:57:14;;;;;;;13.98;2.25;;;43.10;64.30;;;;;;5048000;28;20171;-80
2021/06/16 06:59:40;;;;;;;8.25;2.38;;;42.30;67.00;;;;;;5045473;28;20225;-81
2021/06/16 07:02:06;;;;;;;12.85;3.05;;;43.00;67.30;;;;;;5057052;28;20193;-81
2021/06/16 07:04:32;;;;;;;15.63;3.38;;;43.70;64.90;;;;;;5056894;28;20163;-81
2021/06/16 07:06:58;;;;;;;8.02;2.10;;;44.20;64.30;;;;;;5053854;28;20642;-81
2021/06/16 07:09:24;;;;;;;5.57;2.40;;;44.10;61.00;;;;;;5045846;28;20183;-83
2021/06/16 07:11:50;;;;;;;9.50;2.47;;;44.40;60.10;;;;;;5057011;28;20171;-80
2021/06/16 07:14:16;;;;;;;6.78;1.88;;;43.90;60.70;;;;;;5055113;28;20159;-82
2021/06/16 07:16:42;;;;;;;6.78;1.98;;;43.10;63.10;;;;;;5056688;28;20695;-81
2021/06/16 07:19:08;;;;;;;8.48;2.55;;;43.50;61.90;;;;;;5056481;28;20289;-81
2021/06/16 07:21:34;;;;;;;4.43;2.17;;;44.10;63.70;;;;;;5041612;28;20195;-81
2021/06/16 07:23:59;;;;;;;5.00;2.03;;;43.70;61.10;;;;;;5035159;28;20179;-81
2021/06/16 07:26:25;;;;;;;5.32;2.00;;;43.90;64.50;;;;;;5035281;28;20626;-82
2021/06/16 07:28:51;;;;;;;6.90;2.10;;;44.30;60.90;;;;;;5036490;28;20163;-80
2021/06/16 07:31:16;;;;;;;2.97;2.08;;;43.90;59.70;;;;;;5037208;28;20536;-83
2021/06/16 07:33:42;;;;;;;6.40;2.00;;;44.10;60.70;;;;;;5036082;28;20160;-82
2021/06/16 07:36:08;;;;;;;7.13;2.33;;;44.70;61.20;;;;;;5052062;28;20183;-81
2021/06/16 07:38:33;;;;;;;4.55;1.77;;;45.00;59.30;;;;;;5037713;28;20656;-82
2021/06/16 07:40:59;;;;;;;13.57;2.67;;;44.10;59.80;;;;;;5035865;28;20197;-84
2021/06/16 07:43:25;;;;;;;6.57;2.28;;;43.90;59.40;;;;;;5037353;28;20190;-83
2021/06/16 07:45:51;;;;;;;6.53;2.00;;;43.00;62.40;;;;;;5036184;28;20589;-84
2021/06/16 07:48:16;;;;;;;3.95;2.05;;;44.10;61.80;;;;;;5035057;28;20168;-86
2021/06/16 07:50:42;;;;;;;6.97;2.30;;;44.90;58.80;;;;;;5051355;28;20597;-85
2021/06/16 07:53:08;;;;;;;5.68;2.22;;;44.30;61.90;;;;;;5036990;28;20168;-84
2021/06/16 07:55:35;;;;;;;6.50;2.58;;;45.10;60.80;;;;;;5035974;28;20200;-83
2021/06/16 07:58:02;;;;;;;6.53;2.30;;;46.40;59.40;;;;;;5034403;28;20200;-83
2021/06/16 08:00:28;;;;;;;11.52;2.35;;;47.00;56.90;;;;;;5035888;28;20168;-84
2021/06/16 08:02:54;;;;;;;14.60;2.78;;;47.10;57.60;;;;;;5019245;28;20686;-84
2021/06/16 08:05:19;;;;;;;5.55;2.40;;;46.90;56.10;;;;;;5034237;28;20258;-84
2021/06/16 08:07:45;;;;;;;7.45;2.88;;;47.30;57.80;;;;;;5045142;28;20175;-83
2021/06/16 08:10:12;;;;;;;6.88;2.40;;;47.90;56.10;;;;;;5069325;28;20163;-82
2021/06/16 08:12:38;;;;;;;5.30;2.22;;;47.60;56.00;;;;;;5055222;28;20175;-83
2021/06/16 08:15:06;;;;;;;6.57;2.85;;;47.50;56.40;;;;;;5053863;28;20524;-83
2021/06/16 08:17:32;;;;;;;9.43;2.72;;;48.00;57.60;;;;;;5054123;28;20170;-83
2021/06/16 08:19:58;;;;;;;10.38;2.28;;;48.80;56.10;;;;;;5054428;28;20217;-83
2021/06/16 08:22:24;;;;;;;5.63;2.53;;;48.70;54.80;;;;;;5035386;28;20163;-84
2021/06/16 08:24:50;;;;;;;6.18;2.42;;;47.60;54.80;;;;;;5036829;28;20171;-84
2021/06/16 08:27:16;;;;;;;6.82;2.83;;;46.60;55.90;;;;;;5033805;28;20167;-84
2021/06/16 08:29:41;;;;;;;30.50;5.05;;;46.10;56.40;;;;;;5035121;28;20701;-86
2021/06/16 08:32:07;;;;;;;19.65;3.47;;;46.60;56.90;;;;;;5034819;28;20622;-84
2021/06/16 08:34:35;;;;;;;11.32;2.40;;;47.60;56.50;;;;;;5070681;28;20173;-84
2021/06/16 08:37:01;;;;;;;8.13;2.08;;;47.60;55.40;;;;;;5045977;28;20167;-83
2021/06/16 08:39:26;;;;;;;7.95;2.67;;;46.90;56.10;;;;;;5033835;28;20206;-83
2021/06/16 08:41:52;;;;;;;7.63;1.90;;;46.30;57.50;;;;;;5049260;28;20561;-83
2021/06/16 08:44:18;;;;;;;8.15;2.40;;;47.00;57.50;;;;;;5055010;28;20501;-83
2021/06/16 08:46:44;;;;;;;6.60;2.72;;;46.50;58.50;;;;;;5053280;28;20167;-84
2021/06/16 08:49:11;;;;;;;5.72;3.17;;;45.70;57.50;;;;;;5054790;28;20167;-85
2021/06/16 08:51:38;;;;;;;6.25;2.25;;;45.70;58.40;;;;;;5041317;28;20178;-84
2021/06/16 08:54:05;;;;;;;14.40;2.35;;;47.00;59.30;;;;;;5034739;28;20243;-85
2021/06/16 08:56:31;;;;;;;7.60;2.42;;;48.30;56.30;;;;;;5034566;28;20163;-82
2021/06/16 08:58:57;;;;;;;8.98;2.47;;;49.10;55.80;;;;;;5034705;28;20198;-82
2021/06/16 09:01:25;;;;;;;7.40;2.70;;;49.20;54.70;;;;;;5035717;28;20176;-83
2021/06/16 09:03:51;;;;;;;5.18;2.22;;;49.40;57.50;;;;;;5034731;28;20170;-82
2021/06/16 09:06:17;;;;;;;3.78;2.30;;;48.50;55.90;;;;;;5035830;28;20168;-82
2021/06/16 09:09:03;;;;;;;7.72;2.05;;;48.00;59.20;;;;;;5052526;28;20253;-83
2021/06/16 09:11:48;;;;;;;7.60;2.30;;;48.40;57.00;;;;;;5038617;28;20159;-83
2021/06/16 09:14:20;;;;;;;11.18;2.60;;;49.40;54.90;;;;;;5034616;28;20191;-83
2021/06/16 09:16:47;;;;;;;3.60;2.10;;;50.40;55.80;;;;;;5030082;28;20168;-83
2021/06/16 09:19:26;;;;;;;4.82;2.13;;;50.50;54.50;;;;;;5034361;28;20207;-83
2021/06/16 09:22:07;;;;;;;7.95;2.72;;;49.10;54.30;;;;;;5032969;28;20167;-82
2021/06/16 09:24:50;;;;;;;7.05;3.83;;;47.40;56.50;;;;;;5033223;28;20493;-84
2021/06/16 09:27:37;;;;;;;8.35;2.50;;;47.90;57.30;;;;;;5032770;28;20250;-82
2021/06/16 09:30:24;;;;;;;5.30;2.50;;;48.70;55.80;;;;;;5048947;28;20191;-83
2021/06/16 09:33:07;;;;;;;8.93;2.55;;;49.80;54.60;;;;;;5034188;28;20579;-82
2021/06/16 09:35:39;;;;;;;7.25;2.40;;;49.80;55.40;;;;;;5068200;28;20612;-83
2021/06/16 09:38:09;;;;;;;8.10;2.65;;;49.90;54.80;;;;;;5033748;28;20274;-83
2021/06/16 09:40:36;;;;;;;8.60;3.00;;;50.20;54.30;;;;;;5064388;28;20608;-83
2021/06/16 09:43:02;;;;;;;12.80;3.13;;;50.00;55.30;;;;;;5033679;28;20957;-83
2021/06/16 09:45:28;;;;;;;7.30;2.70;;;49.10;55.60;;;;;;5033680;28;20176;-81
2021/06/16 09:47:54;;;;;;;13.52;2.63;;;47.90;56.40;;;;;;5035206;28;20171;-82
2021/06/16 09:50:24;;;;;;;13.88;2.95;;;48.10;56.70;;;;;;5034502;28;20173;-81
2021/06/16 09:52:51;;;;;;;9.90;2.33;;;48.50;55.90;;;;;;5033335;28;20527;-83
2021/06/16 09:55:22;;;;;;;10.05;2.83;;;48.00;54.80;;;;;;5033781;28;20156;-82
2021/06/16 09:58:09;;;;;;;7.93;2.75;;;46.90;55.60;;;;;;5062672;28;20195;-82
2021/06/16 10:00:36;;;;;;;8.23;2.45;;;46.60;56.90;;;;;;5052068;28;20582;-82
2021/06/16 10:03:13;;;;;;;3.60;2.30;;;47.10;55.90;;;;;;5033713;28;20604;-81
2021/06/16 10:06:15;;;;;;;7.78;2.80;;;47.40;56.30;;;;;;5053451;28;20179;-81
2021/06/16 10:08:43;;;;;;;6.15;2.63;;;47.00;55.80;;;;;;5068921;28;20170;-82
2021/06/16 10:11:20;;;;;;;9.60;2.90;;;47.20;57.20;;;;;;5044498;28;20178;-82
2021/06/16 10:13:47;;;;;;;6.45;2.75;;;46.70;57.40;;;;;;5069037;28;20646;-83
2021/06/16 10:16:14;;;;;;;11.02;2.63;;;47.80;57.20;;;;;;5053496;28;20492;-82
2021/06/16 10:18:42;;;;;;;7.65;2.97;;;48.30;56.00;;;;;;5053114;28;20217;-82
2021/06/16 10:21:14;;;;;;;18.58;3.28;;;48.00;55.90;;;;;;5067062;28;20253;-82
2021/06/16 10:23:40;;;;;;;7.22;3.10;;;47.00;55.80;;;;;;5053458;28;20618;-82
2021/06/16 10:26:12;;;;;;;15.15;3.60;;;46.80;57.40;;;;;;5039437;28;20176;-81
2021/06/16 10:28:42;;;;;;;4.85;3.05;;;45.80;57.70;;;;;;5033532;28;20535;-84
2021/06/16 10:31:09;;;;;;;6.38;2.88;;;45.40;60.00;;;;;;5037262;28;20209;-85
2021/06/16 10:33:37;;;;;;;6.88;2.83;;;45.50;60.10;;;;;;5052881;28;20202;-85
2021/06/16 10:36:15;;;;;;;17.40;3.08;;;46.00;58.80;;;;;;5036189;28;20162;-85
2021/06/16 10:39:01;;;;;;;8.27;2.80;;;46.50;59.00;;;;;;5037399;28;20195;-84
2021/06/16 10:41:45;;;;;;;15.20;3.00;;;45.40;58.90;;;;;;5056557;28;20164;-84
2021/06/16 10:44:16;;;;;;;6.22;2.95;;;44.90;58.40;;;;;;5037343;28;20615;-84
2021/06/16 10:46:54;;;;;;;12.77;3.13;;;45.00;61.10;;;;;;5017637;28;20155;-83
2021/06/16 10:49:50;;;;;;;6.13;2.70;;;45.20;59.10;;;;;;5034768;28;20229;-83
2021/06/16 10:52:19;;;;;;;5.35;2.30;;;45.60;59.50;;;;;;5045731;28;20589;-81
2021/06/16 10:54:59;;;;;;;8.38;2.78;;;46.00;61.10;;;;;;5055654;28;20519;-81
2021/06/16 10:57:25;;;;;;;6.03;2.90;;;44.50;58.80;;;;;;5029149;28;20170;-82
2021/06/16 10:59:52;;;;;;;4.20;2.50;;;45.10;58.70;;;;;;5036627;28;20670;-82
2021/06/16 11:02:38;;;;;;;5.40;2.50;;;45.20;60.50;;;;;;5037952;28;20164;-82
2021/06/16 11:05:21;;;;;;;5.80;3.15;;;45.20;58.50;;;;;;5036004;28;20195;-82
2021/06/16 11:07:46;;;;;;;5.45;2.20;;;45.40;57.20;;;;;;5035501;28;20171;-87
2021/06/16 11:10:13;;;;;;;7.57;2.58;;;45.40;60.40;;;;;;5053823;28;20170;-88
2021/06/16 11:12:42;;;;;;;4.72;2.53;;;45.50;59.40;;;;;;5035999;28;20258;-87
2021/06/16 11:15:30;;;;;;;6.43;3.17;;;45.10;57.10;;;;;;5049490;28;20513;-87
2021/06/16 11:17:59;;;;;;;10.65;2.60;;;44.90;57.30;;;;;;5036168;28;20200;-85
2021/06/16 11:20:33;;;;;;;7.35;2.90;;;45.70;60.60;;;;;;5016183;28;20512;-84
2021/06/16 11:23:01;;;;;;;3.97;2.40;;;45.90;59.00;;;;;;5034025;28;20173;-85
2021/06/16 11:25:33;;;;;;;4.28;2.25;;;45.90;59.40;;;;;;5036434;28;20160;-84
2021/06/16 11:28:09;;;;;;;7.35;2.75;;;46.20;59.90;;;;;;5038345;28;20241;-85
2021/06/16 11:30:53;;;;;;;7.63;2.50;;;45.30;60.00;;;;;;5071479;28;20281;-85
2021/06/16 11:33:19;;;;;;;9.00;2.65;;;44.90;58.80;;;;;;5069973;28;20522;-83
2021/06/16 11:35:49;;;;;;;5.63;2.85;;;45.20;59.80;;;;;;5055729;28;20169;-84
2021/06/16 11:38:18;;;;;;;5.50;2.63;;;45.30;59.30;;;;;;5055349;28;20186;-83
2021/06/16 11:41:04;;;;;;;6.45;3.20;;;45.40;57.20;;;;;;5054788;28;20604;-84
2021/06/16 11:43:41;;;;;;;12.82;2.95;;;44.70;60.70;;;;;;5069491;28;20166;-83
2021/06/16 11:46:17;;;;;;;6.63;3.45;;;45.70;58.80;;;;;;5056063;28;20475;-84
2021/06/16 11:48:46;;;;;;;15.25;3.28;;;46.60;57.60;;;;;;5054779;28;20260;-83
2021/06/16 11:51:12;;;;;;;12.65;2.88;;;46.40;57.00;;;;;;5053915;28;20163;-83
2021/06/16 11:53:39;;;;;;;5.47;2.80;;;45.90;58.00;;;;;;5054140;28;20198;-82
2021/06/16 11:56:07;;;;;;;8.13;2.60;;;45.10;59.20;;;;;;5055549;28;20166;-84
2021/06/16 11:58:38;;;;;;;7.35;2.78;;;43.70;61.00;;;;;;5044925;28;20195;-86
2021/06/16 12:01:13;;;;;;;3.33;2.22;;;43.60;61.30;;;;;;5034251;28;20172;-84
2021/06/16 12:03:45;;;;;;;6.90;2.15;;;43.50;60.70;;;;;;5017805;28;20177;-83
2021/06/16 12:06:15;;;;;;;8.95;2.70;;;42.90;62.10;;;;;;5053334;28;20187;-88
2021/06/16 12:08:43;;;;;;;7.15;2.45;;;42.90;61.80;;;;;;5045444;28;20160;-86
2021/06/16 12:11:34;;;;;;;3.97;3.15;;;43.30;62.40;;;;;;5035267;28;20160;-86
2021/06/16 12:14:10;;;;;;;10.45;2.55;;;43.50;60.70;;;;;;5035737;28;20298;-86
2021/06/16 12:16:41;;;;;;;10.68;2.65;;;43.60;59.60;;;;;;5035585;28;20159;-85
2021/06/16 12:19:08;;;;;;;15.23;3.55;;;43.60;58.60;;;;;;5043675;28;20202;-86
2021/06/16 12:21:34;;;;;;;3.20;2.50;;;41.60;61.60;;;;;;5055079;28;20170;-85
2021/06/16 12:24:26;;;;;;;9.23;2.85;;;39.50;66.50;;;;;;5054025;28;20166;-85
2021/06/16 12:27:02;;;;;;;5.57;2.83;;;37.70;71.50;;;;;;5055078;28;20233;-84
2021/06/16 12:29:30;;;;;;;4.03;2.90;;;36.80;72.30;;;;;;5070540;28;20253;-85
2021/06/16 12:31:58;;;;;;;9.05;3.00;;;36.20;74.60;;;;;;5053518;28;20178;-85
2021/06/16 12:37:12;;;;;;;3.95;2.85;;;35.20;70.80;;;;;;5055036;28;20154;-85
2021/06/16 12:39:54;;;;;;;10.35;2.60;;;34.70;74.40;;;;;;5055417;28;20194;-84
2021/06/16 12:42:20;;;;;;;12.23;2.70;;;34.40;76.80;;;;;;5054634;28;20170;-85
2021/06/16 12:44:46;;;;;;;6.30;2.17;;;34.00;74.70;;;;;;5053794;28;20163;-84
2021/06/16 12:47:24;;;;;;;4.72;2.30;;;33.70;74.80;;;;;;5053320;28;20216;-85
2021/06/16 12:49:52;;;;;;;3.53;2.45;;;33.60;76.80;;;;;;5014697;28;20286;-84
2021/06/16 12:52:34;;;;;;;5.35;2.20;;;33.60;76.60;;;;;;5046612;28;20525;-84
2021/06/16 12:55:10;;;;;;;6.80;3.10;;;33.50;75.40;;;;;;5014980;28;20171;-84
2021/06/16 12:57:47;;;;;;;9.30;2.78;;;33.30;78.30;;;;;;5076394;28;20231;-84